Time;durP1;ratioP1;P1;durP2;ratioP2;P2;SDS_P1;SDS_P2;PMS_P1;PMS_P2;Temp;Humidity;BMP_temperature;BMP_pressure;BME280_temperature;BME280_humidity;BME280_pressure;Samples;Min_cycle;Max_cycle;Signal;HPM_P1;HPM_P2
2023/01/24 00:00:30;;;;;;;6.50;3.53;;;;;;;;;;4967187;28;20510;-64
2023/01/24 00:02:57;;;;;;;5.97;3.53;;;;;;;;;;4965189;28;20451;-65
2023/01/24 00:05:41;;;;;;;4.50;2.87;;;;;;;;;;4967296;28;20458;-65
2023/01/24 00:08:08;;;;;;;6.33;3.30;;;;;;;;;;4965391;28;20959;-64
2023/01/24 00:10:36;;;;;;;4.47;2.80;;;;;;;;;;4967141;28;21013;-64
2023/01/24 00:13:02;;;;;;;4.47;2.43;;;;;;;;;;4965297;28;20456;-64
2023/01/24 00:15:29;;;;;;;4.10;2.57;;;;;;;;;;4966611;28;21002;-65
2023/01/24 00:17:55;;;;;;;4.83;2.60;;;;;;;;;;4965246;28;21861;-65
2023/01/24 00:20:22;;;;;;;14.03;4.50;;;;;;;;;;4967080;28;20463;-65
2023/01/24 00:22:49;;;;;;;4.50;2.63;;;;;;;;;;4963770;28;20443;-64
2023/01/24 00:25:15;;;;;;;5.07;3.30;;;;;;;;;;4966722;28;20975;-64
2023/01/24 00:27:42;;;;;;;4.77;2.80;;;;;;;;;;4965245;28;20464;-65
2023/01/24 00:30:10;;;;;;;6.03;3.67;;;;;;;;;;4964792;28;20464;-65
2023/01/24 00:32:37;;;;;;;4.97;3.37;;;;;;;;;;4966704;28;20468;-64
2023/01/24 00:35:04;;;;;;;16.73;6.50;;;;;;;;;;4962587;28;20554;-65
2023/01/24 00:37:30;;;;;;;4.50;2.93;;;;;;;;;;4972108;28;20232;-64
2023/01/24 00:40:15;;;;;;;8.30;4.23;;;;;;;;;;4966075;28;21000;-65
2023/01/24 00:42:43;;;;;;;16.43;7.63;;;;;;;;;;4985928;28;20552;-64
2023/01/24 00:45:27;;;;;;;12.13;5.17;;;;;;;;;;4983532;28;20443;-65
2023/01/24 00:47:53;;;;;;;8.70;4.77;;;;;;;;;;4985873;28;20459;-64
2023/01/24 00:50:20;;;;;;;7.40;4.00;;;;;;;;;;4981078;28;20466;-65
2023/01/24 00:52:47;;;;;;;7.10;4.83;;;;;;;;;;4950998;28;20464;-64
2023/01/24 00:55:14;;;;;;;10.20;4.13;;;;;;;;;;4964345;28;20471;-64
2023/01/24 00:57:41;;;;;;;5.93;3.80;;;;;;;;;;4964571;28;20932;-64
2023/01/24 01:00:08;;;;;;;8.97;3.57;;;;;;;;;;4962809;28;20464;-65
2023/01/24 01:02:35;;;;;;;7.30;3.97;;;;;;;;;;4966412;28;21179;-64
2023/01/24 01:05:02;;;;;;;6.73;4.50;;;;;;;;;;4964109;28;20810;-64
2023/01/24 01:07:31;;;;;;;7.77;3.83;;;;;;;;;;4965898;28;20475;-64
2023/01/24 01:09:58;;;;;;;9.93;5.37;;;;;;;;;;4945508;28;20468;-65
2023/01/24 01:12:43;;;;;;;6.60;4.33;;;;;;;;;;4967191;28;20486;-65
2023/01/24 01:15:10;;;;;;;6.33;3.93;;;;;;;;;;4965523;28;20467;-65
2023/01/24 01:17:54;;;;;;;7.30;4.37;;;;;;;;;;4963562;28;20457;-65
2023/01/24 01:20:20;;;;;;;7.43;4.47;;;;;;;;;;4966137;28;20456;-65
2023/01/24 01:22:47;;;;;;;5.40;3.67;;;;;;;;;;4963781;28;20890;-64
2023/01/24 01:25:14;;;;;;;6.23;4.27;;;;;;;;;;4944651;28;20471;-64
2023/01/24 01:27:40;;;;;;;7.80;3.87;;;;;;;;;;4962420;28;20452;-65
2023/01/24 01:30:25;;;;;;;5.50;3.87;;;;;;;;;;4964794;28;20467;-64
2023/01/24 01:32:52;;;;;;;8.97;4.07;;;;;;;;;;4946026;28;20471;-64
2023/01/24 01:35:18;;;;;;;7.30;3.70;;;;;;;;;;4926048;28;20552;-64
2023/01/24 01:37:45;;;;;;;6.00;3.40;;;;;;;;;;4970741;28;21058;-65
2023/01/24 01:40:12;;;;;;;6.57;3.80;;;;;;;;;;4984995;28;20465;-64
2023/01/24 01:42:56;;;;;;;6.00;3.73;;;;;;;;;;4981292;28;20451;-65
2023/01/24 02:17:18;;;;;;;6.70;4.13;;;;;;;;;;4961807;28;20541;-64
2023/01/24 02:19:45;;;;;;;6.03;3.40;;;;;;;;;;4962416;28;20467;-64
2023/01/24 02:22:13;;;;;;;4.97;3.30;;;;;;;;;;4963359;28;20455;-64
2023/01/24 02:24:42;;;;;;;6.47;3.70;;;;;;;;;;4946307;28;20452;-64
2023/01/24 02:27:09;;;;;;;7.60;4.07;;;;;;;;;;4962945;28;20963;-64
2023/01/24 02:29:35;;;;;;;6.07;4.00;;;;;;;;;;4963911;28;20470;-64
2023/01/24 02:32:02;;;;;;;6.60;4.00;;;;;;;;;;4945422;28;20796;-64
2023/01/24 02:34:29;;;;;;;7.60;4.67;;;;;;;;;;4963761;28;20494;-64
2023/01/24 02:36:59;;;;;;;6.97;4.20;;;;;;;;;;4946033;28;20459;-64
2023/01/24 02:39:28;;;;;;;8.27;4.30;;;;;;;;;;4964658;28;20545;-64
2023/01/24 02:41:55;;;;;;;5.50;4.23;;;;;;;;;;4981872;28;20509;-64
2023/01/24 02:44:29;;;;;;;5.97;3.57;;;;;;;;;;4964883;28;20475;-64
2023/01/24 02:46:57;;;;;;;4.93;3.87;;;;;;;;;;4933815;28;20586;-64
2023/01/24 02:49:23;;;;;;;6.30;4.10;;;;;;;;;;4951309;28;20464;-64
2023/01/24 02:54:35;;;;;;;9.30;4.90;;;;;;;;;;4966804;28;20977;-64
2023/01/24 02:59:47;;;;;;;7.87;4.93;;;;;;;;;;4966980;28;20781;-64
2023/01/24 03:02:14;;;;;;;9.03;5.27;;;;;;;;;;4940957;28;20475;-64
2023/01/24 03:04:40;;;;;;;6.73;4.70;;;;;;;;;;4968290;28;20471;-64
2023/01/24 03:07:24;;;;;;;8.27;5.30;;;;;;;;;;4950935;28;20539;-64
2023/01/24 03:09:56;;;;;;;8.60;5.33;;;;;;;;;;4943779;28;20513;-64
2023/01/24 03:35:20;;;;;;;7.03;4.83;;;;;;;;;;4968276;28;20454;-64
2023/01/24 03:40:33;;;;;;;8.73;5.50;;;;;;;;;;4986090;28;20465;-64
2023/01/24 03:42:59;;;;;;;8.60;4.97;;;;;;;;;;4967569;28;20991;-64
2023/01/24 03:45:31;;;;;;;6.33;4.83;;;;;;;;;;4963892;28;20563;-64
2023/01/24 03:47:59;;;;;;;10.40;5.13;;;;;;;;;;4949659;28;20995;-64
2023/01/24 03:53:16;;;;;;;7.73;5.30;;;;;;;;;;4964161;28;20475;-64
2023/01/24 03:55:45;;;;;;;9.57;6.00;;;;;;;;;;4947500;28;20544;-64
2023/01/24 03:58:12;;;;;;;9.43;5.77;;;;;;;;;;4952713;28;20545;-64
2023/01/24 04:00:42;;;;;;;10.50;6.37;;;;;;;;;;4965508;28;20963;-63
2023/01/24 04:03:25;;;;;;;9.50;5.93;;;;;;;;;;4963915;28;22470;-64
2023/01/24 04:05:52;;;;;;;10.50;6.33;;;;;;;;;;4965157;28;20444;-64
2023/01/24 04:08:19;;;;;;;9.23;6.40;;;;;;;;;;4966253;28;20464;-64
2023/01/24 04:10:46;;;;;;;13.53;7.70;;;;;;;;;;4964128;28;20998;-64
2023/01/24 04:13:31;;;;;;;10.80;7.40;;;;;;;;;;4965493;28;20467;-64
2023/01/24 04:15:58;;;;;;;11.57;7.20;;;;;;;;;;4965234;28;20547;-64
2023/01/24 04:18:45;;;;;;;10.63;7.17;;;;;;;;;;4961279;28;20804;-64
2023/01/24 04:21:12;;;;;;;10.80;7.37;;;;;;;;;;4964248;28;20460;-64
2023/01/24 04:23:39;;;;;;;10.80;7.83;;;;;;;;;;4957838;28;20472;-64
2023/01/24 04:26:06;;;;;;;17.30;11.00;;;;;;;;;;4947732;28;20526;-64
2023/01/24 04:28:33;;;;;;;18.07;13.10;;;;;;;;;;4965709;28;20534;-64
2023/01/24 04:31:01;;;;;;;14.80;9.53;;;;;;;;;;4964068;28;20996;-64
2023/01/24 04:34:01;;;;;;;14.57;9.37;;;;;;;;;;4947145;28;20495;-64
2023/01/24 04:36:45;;;;;;;20.73;12.97;;;;;;;;;;4966384;28;20839;-64
2023/01/24 04:39:12;;;;;;;11.60;8.50;;;;;;;;;;4983050;28;20459;-64
2023/01/24 04:41:57;;;;;;;11.93;8.07;;;;;;;;;;4985656;28;20459;-64
2023/01/24 04:44:24;;;;;;;13.70;8.07;;;;;;;;;;4967031;28;20466;-64
2023/01/24 04:46:51;;;;;;;10.90;7.63;;;;;;;;;;4968340;28;20546;-64
2023/01/24 04:49:18;;;;;;;12.20;8.10;;;;;;;;;;4961541;28;20471;-64
2023/01/24 04:51:47;;;;;;;61.53;29.13;;;;;;;;;;4964676;28;20464;-64
2023/01/24 04:54:19;;;;;;;20.67;12.33;;;;;;;;;;4963086;28;20530;-64
2023/01/24 04:56:48;;;;;;;14.13;9.40;;;;;;;;;;4964987;28;20951;-64
2023/01/24 04:59:32;;;;;;;18.70;11.27;;;;;;;;;;4963381;28;20464;-64
2023/01/24 05:01:59;;;;;;;22.77;12.57;;;;;;;;;;4964939;28;20479;-64
2023/01/24 05:04:35;;;;;;;76.87;34.70;;;;;;;;;;4963426;28;20467;-64
2023/01/24 05:07:02;;;;;;;17.17;10.63;;;;;;;;;;4949200;28;20839;-64
2023/01/24 05:09:54;;;;;;;12.13;7.43;;;;;;;;;;4946625;28;20451;-64
2023/01/24 05:12:22;;;;;;;14.60;8.33;;;;;;;;;;4931497;28;20460;-64
2023/01/24 05:14:48;;;;;;;11.47;8.23;;;;;;;;;;4964266;28;20819;-64
2023/01/24 05:17:15;;;;;;;11.07;7.40;;;;;;;;;;4963354;28;20583;-64
2023/01/24 05:19:42;;;;;;;15.10;8.33;;;;;;;;;;4965634;28;20463;-64
2023/01/24 05:22:26;;;;;;;12.50;7.93;;;;;;;;;;4962655;28;20448;-64
2023/01/24 05:24:53;;;;;;;13.63;8.87;;;;;;;;;;4964246;28;20572;-64
2023/01/24 05:27:40;;;;;;;12.97;8.37;;;;;;;;;;4962014;28;20539;-64
2023/01/24 05:30:10;;;;;;;12.40;9.10;;;;;;;;;;4943859;28;20472;-64
2023/01/24 05:33:00;;;;;;;13.13;9.23;;;;;;;;;;4948144;28;20540;-64
2023/01/24 05:35:26;;;;;;;45.83;18.00;;;;;;;;;;4963653;28;20994;-64
2023/01/24 05:38:11;;;;;;;19.07;11.03;;;;;;;;;;4975818;28;20455;-64
2023/01/24 05:40:39;;;;;;;16.80;9.50;;;;;;;;;;4964615;28;20482;-64
2023/01/24 05:43:23;;;;;;;13.30;8.27;;;;;;;;;;4966803;28;20459;-64
2023/01/24 05:45:51;;;;;;;12.43;8.50;;;;;;;;;;4948525;28;20471;-64
2023/01/24 05:48:41;;;;;;;12.67;8.93;;;;;;;;;;4961658;28;20590;-64
2023/01/24 05:51:09;;;;;;;11.70;8.23;;;;;;;;;;4964446;28;20539;-64
2023/01/24 05:53:36;;;;;;;13.40;8.27;;;;;;;;;;4961065;28;20507;-64
2023/01/24 05:56:04;;;;;;;11.70;7.93;;;;;;;;;;4962083;28;20472;-64
2023/01/24 05:58:33;;;;;;;10.33;7.30;;;;;;;;;;4963965;28;20464;-64
2023/01/24 06:01:09;;;;;;;11.00;7.10;;;;;;;;;;4962243;28;20463;-64
2023/01/24 06:03:42;;;;;;;12.40;8.10;;;;;;;;;;4942077;28;20464;-64
2023/01/24 06:06:10;;;;;;;15.10;7.67;;;;;;;;;;4961976;28;20523;-64
2023/01/24 06:08:37;;;;;;;10.90;7.60;;;;;;;;;;4931904;28;20466;-64
2023/01/24 06:11:04;;;;;;;12.40;7.80;;;;;;;;;;4963409;28;20459;-64
2023/01/24 06:13:48;;;;;;;13.90;8.40;;;;;;;;;;4948591;28;20939;-64
2023/01/24 06:16:16;;;;;;;13.00;8.10;;;;;;;;;;4963093;28;20468;-64
2023/01/24 06:19:01;;;;;;;12.07;7.63;;;;;;;;;;4963111;28;20555;-64
2023/01/24 06:21:34;;;;;;;9.97;5.43;;;;;;;;;;4961830;28;20569;-64
2023/01/24 06:24:01;;;;;;;10.40;7.30;;;;;;;;;;4962164;28;20542;-64
2023/01/24 06:26:40;;;;;;;13.03;8.13;;;;;;;;;;4962007;28;20460;-64
2023/01/24 06:29:08;;;;;;;13.43;8.43;;;;;;;;;;4964539;28;20510;-64
2023/01/24 06:31:41;;;;;;;12.47;7.93;;;;;;;;;;4945656;28;21021;-66
2023/01/24 06:34:26;;;;;;;12.07;8.03;;;;;;;;;;4945493;28;20587;-64
2023/01/24 06:36:53;;;;;;;14.03;8.67;;;;;;;;;;4964421;28;20452;-64
2023/01/24 06:39:21;;;;;;;16.23;8.17;;;;;;;;;;4982531;28;20985;-63
2023/01/24 06:41:48;;;;;;;15.53;11.07;;;;;;;;;;4984081;28;20796;-65
2023/01/24 06:44:15;;;;;;;12.00;7.80;;;;;;;;;;4982609;28;20858;-63
2023/01/24 06:46:42;;;;;;;14.73;8.07;;;;;;;;;;4983760;28;20509;-63
2023/01/24 06:49:11;;;;;;;13.23;8.03;;;;;;;;;;4982210;28;20450;-64
2023/01/24 06:51:38;;;;;;;15.20;7.87;;;;;;;;;;4964941;28;20499;-63
2023/01/24 06:54:23;;;;;;;14.13;7.70;;;;;;;;;;4963948;28;20463;-66
2023/01/24 06:56:49;;;;;;;13.30;9.27;;;;;;;;;;4962714;28;20550;-65
2023/01/24 06:59:34;;;;;;;13.40;8.70;;;;;;;;;;4964187;28;20502;-65
2023/01/24 07:02:01;;;;;;;14.63;9.77;;;;;;;;;;4963713;28;20495;-66
2023/01/24 07:04:27;;;;;;;26.33;14.90;;;;;;;;;;4963068;28;20466;-64
2023/01/24 07:06:54;;;;;;;15.83;9.30;;;;;;;;;;4964415;28;20488;-65
2023/01/24 07:09:21;;;;;;;24.53;14.30;;;;;;;;;;4962377;28;20823;-65
2023/01/24 07:12:05;;;;;;;16.53;10.27;;;;;;;;;;4949446;28;20479;-65
2023/01/24 07:14:32;;;;;;;13.30;8.33;;;;;;;;;;4962547;28;20459;-65
2023/01/24 07:17:16;;;;;;;15.00;8.50;;;;;;;;;;4964174;28;20463;-65
2023/01/24 07:19:43;;;;;;;13.07;9.27;;;;;;;;;;4962251;28;20479;-65
2023/01/24 07:22:13;;;;;;;12.90;8.77;;;;;;;;;;4964405;28;20577;-65
2023/01/24 07:24:41;;;;;;;15.27;9.43;;;;;;;;;;4962775;28;20544;-66
2023/01/24 07:27:11;;;;;;;15.63;9.37;;;;;;;;;;4945442;28;20459;-66
2023/01/24 07:29:38;;;;;;;17.63;10.03;;;;;;;;;;4964758;28;20898;-65
2023/01/24 07:32:05;;;;;;;15.27;8.70;;;;;;;;;;4965972;28;20463;-65
2023/01/24 07:34:32;;;;;;;15.53;9.90;;;;;;;;;;4967157;28;20797;-65
2023/01/24 07:36:59;;;;;;;17.07;10.27;;;;;;;;;;4966874;28;20541;-65
2023/01/24 07:39:27;;;;;;;18.77;11.83;;;;;;;;;;4986865;28;20549;-66
2023/01/24 07:41:55;;;;;;;17.37;12.40;;;;;;;;;;4985727;28;20447;-65
2023/01/24 07:44:40;;;;;;;17.57;12.80;;;;;;;;;;4985683;28;20474;-65
2023/01/24 07:47:07;;;;;;;20.43;10.53;;;;;;;;;;4984719;28;20926;-65
2023/01/24 07:49:51;;;;;;;15.97;9.30;;;;;;;;;;4969115;28;20458;-65
2023/01/24 07:52:18;;;;;;;15.10;8.93;;;;;;;;;;4984877;28;20536;-65
2023/01/24 07:54:44;;;;;;;14.27;9.50;;;;;;;;;;4986693;28;20545;-65
2023/01/24 07:57:11;;;;;;;15.40;9.53;;;;;;;;;;4971522;28;20463;-65
2023/01/24 07:59:38;;;;;;;13.83;9.40;;;;;;;;;;4984376;28;20450;-66
2023/01/24 08:02:05;;;;;;;14.67;9.03;;;;;;;;;;4983208;28;20487;-65
2023/01/24 08:04:32;;;;;;;11.37;7.53;;;;;;;;;;4966079;28;20464;-65
2023/01/24 08:07:19;;;;;;;11.83;7.13;;;;;;;;;;4965800;28;20452;-65
2023/01/24 08:09:47;;;;;;;13.47;7.50;;;;;;;;;;4966678;28;20796;-66
2023/01/24 08:12:13;;;;;;;12.40;7.40;;;;;;;;;;4965292;28;20467;-65
2023/01/24 08:14:40;;;;;;;10.37;7.67;;;;;;;;;;4967327;28;20472;-65
2023/01/24 08:17:07;;;;;;;8.67;6.60;;;;;;;;;;4965165;28;20464;-65
2023/01/24 08:19:35;;;;;;;9.57;6.60;;;;;;;;;;4967024;28;20507;-65
2023/01/24 08:22:21;;;;;;;10.87;7.10;;;;;;;;;;4964856;28;20578;-66
2023/01/24 08:24:48;;;;;;;12.27;7.50;;;;;;;;;;4966814;28;20467;-65
2023/01/24 08:27:15;;;;;;;13.53;8.97;;;;;;;;;;4965169;28;20460;-65
2023/01/24 08:29:41;;;;;;;14.03;9.13;;;;;;;;;;4967270;28;20459;-66
2023/01/24 08:32:25;;;;;;;14.83;10.17;;;;;;;;;;4964718;28;20482;-65
2023/01/24 08:34:52;;;;;;;14.47;9.40;;;;;;;;;;4966226;28;20474;-65
2023/01/24 08:37:36;;;;;;;16.20;9.50;;;;;;;;;;4970473;28;20462;-65
2023/01/24 08:40:03;;;;;;;14.20;9.53;;;;;;;;;;4970735;28;20493;-65
2023/01/24 08:42:30;;;;;;;15.27;9.10;;;;;;;;;;4963356;28;20468;-66
2023/01/24 08:44:56;;;;;;;16.57;9.30;;;;;;;;;;4966484;28;20514;-65
2023/01/24 08:47:23;;;;;;;16.03;8.93;;;;;;;;;;4964745;28;20819;-65
2023/01/24 08:49:49;;;;;;;13.07;7.87;;;;;;;;;;4966351;28;20494;-65
2023/01/24 08:52:16;;;;;;;14.40;8.17;;;;;;;;;;4964798;28;20476;-65
2023/01/24 08:54:43;;;;;;;13.70;8.90;;;;;;;;;;4966391;28;20460;-65
2023/01/24 08:57:12;;;;;;;13.30;8.80;;;;;;;;;;4964712;28;20451;-65
2023/01/24 08:59:39;;;;;;;13.87;8.27;;;;;;;;;;4964542;28;20929;-65
2023/01/24 09:02:05;;;;;;;12.43;8.00;;;;;;;;;;4965997;28;20985;-65
2023/01/24 09:04:32;;;;;;;14.60;8.43;;;;;;;;;;4964692;28;20474;-66
2023/01/24 09:06:59;;;;;;;11.40;7.40;;;;;;;;;;4966187;28;20541;-65
2023/01/24 09:09:26;;;;;;;9.60;6.47;;;;;;;;;;4964647;28;20989;-65
2023/01/24 09:11:53;;;;;;;11.80;7.10;;;;;;;;;;4966200;28;20479;-65
2023/01/24 09:14:19;;;;;;;14.30;7.33;;;;;;;;;;4965018;28;20505;-65
2023/01/24 09:16:46;;;;;;;13.53;8.63;;;;;;;;;;4965370;28;20468;-65
2023/01/24 09:19:13;;;;;;;12.87;8.00;;;;;;;;;;4964142;28;20524;-65
2023/01/24 09:21:40;;;;;;;12.00;7.27;;;;;;;;;;4964742;28;20653;-65
2023/01/24 09:24:07;;;;;;;12.40;7.63;;;;;;;;;;4964320;28;20833;-65
2023/01/24 09:26:34;;;;;;;15.60;9.43;;;;;;;;;;4964725;28;20456;-65
2023/01/24 09:29:01;;;;;;;12.40;8.23;;;;;;;;;;4948471;28;20479;-65
2023/01/24 09:31:28;;;;;;;12.37;7.97;;;;;;;;;;4963576;28;20467;-65
2023/01/24 09:33:55;;;;;;;15.13;7.73;;;;;;;;;;4965879;28;20538;-66
2023/01/24 09:36:26;;;;;;;12.90;5.57;;;;;;;;;;4963963;28;20468;-65
2023/01/24 09:38:52;;;;;;;12.67;7.43;;;;;;;;;;4975676;28;20709;-65
2023/01/24 09:41:49;;;;;;;12.43;7.07;;;;;;;;;;4963881;28;21021;-65
2023/01/24 09:44:37;;;;;;;9.50;6.30;;;;;;;;;;4964044;28;20455;-65
2023/01/24 09:47:10;;;;;;;10.97;6.30;;;;;;;;;;4946230;28;20468;-66
2023/01/24 09:49:40;;;;;;;11.47;6.57;;;;;;;;;;4946980;28;20896;-65
2023/01/24 09:52:26;;;;;;;10.30;6.50;;;;;;;;;;4950132;28;20455;-65
2023/01/24 09:54:56;;;;;;;11.17;7.10;;;;;;;;;;4963900;28;20456;-65
2023/01/24 09:57:27;;;;;;;14.17;7.70;;;;;;;;;;4963436;28;20474;-66
2023/01/24 10:00:00;;;;;;;12.33;7.63;;;;;;;;;;4963214;28;20463;-65
2023/01/24 10:02:44;;;;;;;12.53;7.07;;;;;;;;;;4948394;28;20461;-65
2023/01/24 10:05:14;;;;;;;14.30;8.03;;;;;;;;;;4965389;28;20510;-65
2023/01/24 10:07:44;;;;;;;12.20;7.20;;;;;;;;;;4946249;28;20970;-65
2023/01/24 10:10:20;;;;;;;11.77;7.17;;;;;;;;;;4962967;28;20966;-65
2023/01/24 10:13:17;;;;;;;11.63;6.10;;;;;;;;;;4962848;28;20444;-65
2023/01/24 10:15:49;;;;;;;12.47;8.30;;;;;;;;;;4946262;28;21290;-65
2023/01/24 10:18:39;;;;;;;10.57;5.30;;;;;;;;;;4962790;28;20467;-65
2023/01/24 10:21:24;;;;;;;15.33;8.30;;;;;;;;;;4896773;28;20529;-65
2023/01/24 10:24:10;;;;;;;16.60;8.10;;;;;;;;;;4962187;28;20483;-65
2023/01/24 10:26:42;;;;;;;18.17;9.97;;;;;;;;;;4963320;28;20468;-65
2023/01/24 10:29:09;;;;;;;13.90;8.03;;;;;;;;;;4964428;28;20501;-65
2023/01/24 10:31:40;;;;;;;16.07;8.93;;;;;;;;;;4962846;28;20467;-65
2023/01/24 10:34:28;;;;;;;15.83;9.10;;;;;;;;;;4962124;28;20467;-65
2023/01/24 10:37:25;;;;;;;14.53;8.67;;;;;;;;;;4966315;28;20552;-65
2023/01/24 10:39:52;;;;;;;15.43;8.93;;;;;;;;;;4982858;28;20450;-65
2023/01/24 10:42:36;;;;;;;14.20;8.43;;;;;;;;;;4983646;28;20481;-65
2023/01/24 10:45:16;;;;;;;13.73;8.70;;;;;;;;;;4965199;28;20462;-65
2023/01/24 10:48:06;;;;;;;13.73;9.17;;;;;;;;;;4966878;28;20495;-65
2023/01/24 10:50:42;;;;;;;14.90;8.67;;;;;;;;;;4966115;28;20505;-65
2023/01/24 10:53:27;;;;;;;15.50;9.07;;;;;;;;;;4981974;28;20454;-66
2023/01/24 10:55:58;;;;;;;15.60;9.40;;;;;;;;;;4982054;28;20462;-65
2023/01/24 10:58:43;;;;;;;16.30;10.30;;;;;;;;;;4972719;28;20474;-65
2023/01/24 11:01:18;;;;;;;14.80;9.77;;;;;;;;;;4962683;28;20467;-65
2023/01/24 11:04:18;;;;;;;19.03;11.30;;;;;;;;;;4947328;28;20447;-65
2023/01/24 11:06:46;;;;;;;14.80;10.30;;;;;;;;;;4967778;28;20459;-65
2023/01/24 11:09:14;;;;;;;13.83;9.43;;;;;;;;;;4966589;28;20829;-65
2023/01/24 11:11:51;;;;;;;8.63;5.77;;;;;;;;;;4951458;28;20483;-65
2023/01/24 11:14:34;;;;;;;14.63;9.83;;;;;;;;;;4950996;28;20447;-65
2023/01/24 11:17:01;;;;;;;15.83;9.23;;;;;;;;;;4950622;28;20958;-65
2023/01/24 11:19:31;;;;;;;14.67;9.03;;;;;;;;;;4966041;28;20456;-65
2023/01/24 11:21:59;;;;;;;14.33;9.50;;;;;;;;;;4965808;28;21067;-65
2023/01/24 11:24:27;;;;;;;17.53;9.67;;;;;;;;;;4950655;28;20518;-65
2023/01/24 11:27:03;;;;;;;18.33;8.10;;;;;;;;;;4966344;28;20464;-65
2023/01/24 11:29:32;;;;;;;13.77;8.60;;;;;;;;;;4966982;28;20455;-65
2023/01/24 11:32:31;;;;;;;15.33;9.20;;;;;;;;;;4967370;28;20468;-65
2023/01/24 11:35:02;;;;;;;14.57;7.20;;;;;;;;;;4967191;28;20502;-65
2023/01/24 11:37:29;;;;;;;14.23;9.23;;;;;;;;;;4952645;28;20546;-65
2023/01/24 11:39:59;;;;;;;16.03;9.83;;;;;;;;;;4986896;28;20447;-65
2023/01/24 11:42:44;;;;;;;15.33;9.73;;;;;;;;;;4985156;28;20455;-65
2023/01/24 11:45:32;;;;;;;15.67;9.80;;;;;;;;;;4985689;28;20454;-65
2023/01/24 11:48:17;;;;;;;16.80;9.33;;;;;;;;;;4967952;28;20459;-65
2023/01/24 11:51:01;;;;;;;13.83;9.33;;;;;;;;;;4985228;28;20553;-65
2023/01/24 11:53:45;;;;;;;17.60;10.03;;;;;;;;;;4972506;28;21000;-65
2023/01/24 11:56:16;;;;;;;19.10;10.83;;;;;;;;;;4966239;28;20843;-65
2023/01/24 11:58:52;;;;;;;16.57;9.67;;;;;;;;;;4965600;28;20523;-65
2023/01/24 12:01:31;;;;;;;20.57;11.43;;;;;;;;;;4966069;28;20463;-65
2023/01/24 12:04:01;;;;;;;19.53;11.73;;;;;;;;;;4948477;28;20535;-65
2023/01/24 12:06:48;;;;;;;23.83;12.67;;;;;;;;;;4967099;28;20482;-65
2023/01/24 12:09:16;;;;;;;24.20;12.50;;;;;;;;;;4964803;28;20452;-65
2023/01/24 12:12:01;;;;;;;19.97;11.57;;;;;;;;;;4967307;28;20823;-65
2023/01/24 12:14:47;;;;;;;27.47;13.70;;;;;;;;;;4965361;28;20563;-65
2023/01/24 12:17:34;;;;;;;20.03;11.20;;;;;;;;;;4966392;28;20459;-65
2023/01/24 12:20:13;;;;;;;15.97;10.87;;;;;;;;;;4964950;28;20455;-65
2023/01/24 12:22:57;;;;;;;18.67;10.80;;;;;;;;;;4964803;28;20451;-65
2023/01/24 12:25:37;;;;;;;19.70;11.37;;;;;;;;;;4949101;28;20455;-65
2023/01/24 12:28:26;;;;;;;20.80;12.33;;;;;;;;;;4965932;28;20460;-65
2023/01/24 12:30:53;;;;;;;23.50;13.53;;;;;;;;;;4965291;28;20815;-65
2023/01/24 12:33:27;;;;;;;28.90;14.80;;;;;;;;;;4949070;28;24900;-65
2023/01/24 12:35:55;;;;;;;25.90;14.00;;;;;;;;;;4964860;28;20492;-65
2023/01/24 12:38:24;;;;;;;21.17;12.67;;;;;;;;;;4959799;28;20829;-66
2023/01/24 12:40:56;;;;;;;31.00;15.90;;;;;;;;;;4969045;28;20467;-65
2023/01/24 12:43:34;;;;;;;24.90;14.40;;;;;;;;;;4966745;28;20462;-65
2023/01/24 12:46:07;;;;;;;26.63;14.90;;;;;;;;;;4980613;28;21201;-65
2023/01/24 12:48:38;;;;;;;27.73;15.70;;;;;;;;;;4983869;28;20838;-65
2023/01/24 12:51:23;;;;;;;26.93;15.00;;;;;;;;;;4983850;28;20462;-65
2023/01/24 12:53:53;;;;;;;27.13;14.00;;;;;;;;;;4983364;28;20466;-65
2023/01/24 12:56:20;;;;;;;21.80;14.30;;;;;;;;;;4984648;28;20459;-65
2023/01/24 12:58:48;;;;;;;26.27;14.63;;;;;;;;;;4977607;28;20538;-65
2023/01/24 13:01:18;;;;;;;27.97;14.10;;;;;;;;;;4968270;28;20988;-64
2023/01/24 13:04:03;;;;;;;25.80;13.87;;;;;;;;;;4964066;28;20452;-65
2023/01/24 13:06:45;;;;;;;23.77;14.33;;;;;;;;;;4964645;28;20470;-65
2023/01/24 13:09:23;;;;;;;22.50;13.07;;;;;;;;;;4965638;28;20511;-64
2023/01/24 13:11:50;;;;;;;23.80;13.90;;;;;;;;;;4948637;28;20467;-64
2023/01/24 13:14:35;;;;;;;23.50;13.53;;;;;;;;;;4964358;28;20455;-65
2023/01/24 13:17:21;;;;;;;21.73;13.10;;;;;;;;;;4964981;28;21029;-65
2023/01/24 13:19:48;;;;;;;24.47;14.10;;;;;;;;;;4946075;28;20459;-65
2023/01/24 13:22:14;;;;;;;22.20;13.97;;;;;;;;;;4965893;28;20470;-65
2023/01/24 13:24:56;;;;;;;27.50;13.67;;;;;;;;;;4963278;28;20464;-65
2023/01/24 13:27:40;;;;;;;21.67;13.40;;;;;;;;;;4963604;28;20993;-65
2023/01/24 13:30:25;;;;;;;22.13;13.20;;;;;;;;;;4964157;28;20971;-65
2023/01/24 13:33:17;;;;;;;25.67;14.73;;;;;;;;;;4963562;28;20510;-64
2023/01/24 13:35:50;;;;;;;24.77;13.50;;;;;;;;;;4964105;28;20551;-65
2023/01/24 13:38:26;;;;;;;22.50;12.97;;;;;;;;;;4974996;28;20451;-65
2023/01/24 13:40:56;;;;;;;20.73;12.57;;;;;;;;;;4962378;28;20448;-65
2023/01/24 13:43:57;;;;;;;24.37;12.63;;;;;;;;;;4965145;28;20478;-65
2023/01/24 13:46:47;;;;;;;20.20;12.33;;;;;;;;;;4963033;28;20451;-65
2023/01/24 13:49:17;;;;;;;23.70;12.03;;;;;;;;;;4925462;28;20455;-65
2023/01/24 13:51:53;;;;;;;21.57;12.57;;;;;;;;;;4963442;28;20471;-65
2023/01/24 13:54:39;;;;;;;21.53;11.70;;;;;;;;;;4963661;28;21182;-65
2023/01/24 13:57:12;;;;;;;20.50;12.00;;;;;;;;;;4964601;28;20629;-65
2023/01/24 13:59:39;;;;;;;20.07;11.40;;;;;;;;;;4963624;28;20820;-64
2023/01/24 14:02:25;;;;;;;21.63;12.23;;;;;;;;;;4963594;28;20816;-65
2023/01/24 14:04:52;;;;;;;18.80;10.17;;;;;;;;;;4947228;28;20459;-65
2023/01/24 14:07:19;;;;;;;21.30;11.30;;;;;;;;;;4963077;28;20859;-65
2023/01/24 14:09:46;;;;;;;21.13;11.73;;;;;;;;;;4947628;28;20467;-65
2023/01/24 14:12:31;;;;;;;21.70;11.17;;;;;;;;;;4964339;28;20451;-65
2023/01/24 14:14:59;;;;;;;21.23;11.97;;;;;;;;;;4946209;28;21024;-65
2023/01/24 14:17:26;;;;;;;22.03;12.47;;;;;;;;;;4963093;28;20847;-65
2023/01/24 14:19:54;;;;;;;21.57;11.83;;;;;;;;;;4964748;28;20506;-65
2023/01/24 14:22:21;;;;;;;22.60;13.30;;;;;;;;;;4946267;28;20460;-65
2023/01/24 14:24:53;;;;;;;21.77;11.47;;;;;;;;;;4931417;28;20475;-65
2023/01/24 14:27:30;;;;;;;22.67;11.60;;;;;;;;;;4963314;28;21026;-65
2023/01/24 14:30:20;;;;;;;24.77;12.40;;;;;;;;;;4948168;28;20951;-65
2023/01/24 14:32:47;;;;;;;22.90;13.07;;;;;;;;;;4962596;28;20468;-65
2023/01/24 14:35:25;;;;;;;23.87;13.17;;;;;;;;;;4945915;28;20571;-65
2023/01/24 14:37:52;;;;;;;21.60;11.83;;;;;;;;;;4953557;28;20465;-65
2023/01/24 14:40:24;;;;;;;18.90;11.17;;;;;;;;;;4984022;28;20807;-64
2023/01/24 14:42:52;;;;;;;16.97;10.17;;;;;;;;;;4967782;28;20456;-65
2023/01/24 14:45:21;;;;;;;19.57;11.23;;;;;;;;;;4945273;28;20622;-65
2023/01/24 14:47:48;;;;;;;20.53;11.27;;;;;;;;;;4964435;28;20466;-65
2023/01/24 14:50:20;;;;;;;22.03;11.70;;;;;;;;;;4963087;28;20487;-65
2023/01/24 14:53:21;;;;;;;23.87;13.00;;;;;;;;;;4961775;28;20864;-65
2023/01/24 14:55:47;;;;;;;21.10;11.10;;;;;;;;;;4962602;28;20506;-65
2023/01/24 14:58:24;;;;;;;19.53;11.43;;;;;;;;;;4946986;28;20459;-65
2023/01/24 15:00:52;;;;;;;20.67;11.60;;;;;;;;;;4963853;28;20977;-65
2023/01/24 15:03:20;;;;;;;22.07;12.43;;;;;;;;;;4962389;28;20971;-65
2023/01/24 15:05:51;;;;;;;24.63;12.13;;;;;;;;;;4963839;28;20456;-65
2023/01/24 15:08:18;;;;;;;24.13;11.40;;;;;;;;;;4963322;28;20860;-65
2023/01/24 15:10:44;;;;;;;18.13;10.67;;;;;;;;;;4946830;28;20475;-65
2023/01/24 15:13:18;;;;;;;21.57;11.93;;;;;;;;;;4945913;28;20481;-65
2023/01/24 15:16:03;;;;;;;21.83;12.43;;;;;;;;;;4947699;28;20527;-65
2023/01/24 15:18:36;;;;;;;25.00;11.87;;;;;;;;;;4947078;28;20971;-65
2023/01/24 15:21:02;;;;;;;22.27;10.93;;;;;;;;;;4962707;28;20484;-65
2023/01/24 15:23:30;;;;;;;22.13;12.80;;;;;;;;;;4964220;28;20460;-65
2023/01/24 15:25:56;;;;;;;18.50;11.00;;;;;;;;;;4945316;28;20456;-65
2023/01/24 15:28:30;;;;;;;17.70;10.17;;;;;;;;;;4947236;28;21419;-64
2023/01/24 15:30:57;;;;;;;25.90;12.40;;;;;;;;;;4962386;28;20464;-65
2023/01/24 15:33:24;;;;;;;24.33;13.17;;;;;;;;;;4961753;28;20526;-65
2023/01/24 15:35:51;;;;;;;22.03;12.33;;;;;;;;;;4964080;28;20458;-65
2023/01/24 15:38:18;;;;;;;23.50;12.30;;;;;;;;;;4956752;28;20469;-65
2023/01/24 15:41:11;;;;;;;22.43;12.03;;;;;;;;;;4983236;28;20509;-65
2023/01/24 15:43:48;;;;;;;21.20;11.03;;;;;;;;;;4982040;28;20462;-65
2023/01/24 15:49:36;;;;;;;23.20;13.10;;;;;;;;;;4946794;28;20448;-65
2023/01/24 15:52:21;;;;;;;26.83;13.43;;;;;;;;;;4964321;28;20459;-65
2023/01/24 15:54:55;;;;;;;23.30;12.50;;;;;;;;;;4965091;28;20981;-65
2023/01/24 15:57:40;;;;;;;30.43;14.03;;;;;;;;;;4964999;28;20451;-65
2023/01/24 16:00:06;;;;;;;27.00;13.33;;;;;;;;;;4967264;28;20463;-65
2023/01/24 16:02:50;;;;;;;28.80;12.83;;;;;;;;;;4966732;28;20513;-65
2023/01/24 16:05:20;;;;;;;26.77;13.80;;;;;;;;;;4965086;28;20463;-65
2023/01/24 16:08:07;;;;;;;22.63;12.07;;;;;;;;;;4964326;28;20878;-65
2023/01/24 16:10:34;;;;;;;24.67;13.80;;;;;;;;;;4967513;28;20530;-65